Time;durP1;ratioP1;P1;durP2;ratioP2;P2;SDS_P1;SDS_P2;PMS_P1;PMS_P2;Temp;Humidity;BMP_temperature;BMP_pressure;BME280_temperature;BME280_humidity;BME280_pressure;Samples;Min_cycle;Max_cycle;Signal;HPM_P1;HPM_P2
2022/12/06 00:01:21;;;;;;;9.73;3.70;;;5.40;96.40;;;;;;4993128;28;20136;-73
2022/12/06 00:03:50;;;;;;;9.35;2.70;;;5.40;96.50;;;;;;4992893;28;20104;-74
2022/12/06 00:06:18;;;;;;;9.27;2.95;;;5.40;96.40;;;;;;4977428;28;20132;-75
2022/12/06 00:08:44;;;;;;;10.30;2.83;;;5.40;96.40;;;;;;4992827;28;20375;-74
2022/12/06 00:11:28;;;;;;;5.88;2.60;;;5.30;96.40;;;;;;4976858;28;20132;-74
2022/12/06 00:13:57;;;;;;;7.85;2.83;;;5.30;96.40;;;;;;4973392;28;20047;-74
2022/12/06 00:16:24;;;;;;;7.40;2.42;;;5.30;96.40;;;;;;4973615;28;20035;-74
2022/12/06 00:18:50;;;;;;;6.65;2.20;;;5.30;96.40;;;;;;4973273;28;20042;-74
2022/12/06 00:21:23;;;;;;;4.60;2.25;;;5.20;96.40;;;;;;4973474;28;20443;-75
2022/12/06 00:23:51;;;;;;;3.55;1.90;;;5.20;96.40;;;;;;4972860;28;20062;-74
2022/12/06 00:26:18;;;;;;;5.55;2.13;;;5.20;96.30;;;;;;4973116;28;20082;-74
2022/12/06 00:28:44;;;;;;;3.80;2.08;;;5.20;96.30;;;;;;4986420;28;20049;-74
2022/12/06 00:31:14;;;;;;;6.18;2.20;;;5.10;96.30;;;;;;4992431;28;20039;-74
2022/12/06 00:33:41;;;;;;;10.25;2.47;;;5.10;96.30;;;;;;4992517;28;20560;-75
2022/12/06 00:36:14;;;;;;;4.75;2.42;;;5.10;96.30;;;;;;4992480;28;20038;-75
2022/12/06 00:38:40;;;;;;;3.55;1.98;;;5.10;96.30;;;;;;4992417;28;20112;-74
2022/12/06 00:41:09;;;;;;;7.60;2.40;;;5.10;96.40;;;;;;4992686;28;20087;-74
2022/12/06 00:43:36;;;;;;;5.28;2.53;;;5.10;96.40;;;;;;4991760;28;20132;-74
2022/12/06 00:46:03;;;;;;;7.28;2.58;;;5.00;96.40;;;;;;4992391;28;20557;-74
2022/12/06 00:48:29;;;;;;;5.43;2.00;;;5.00;96.40;;;;;;4992242;28;20129;-74
2022/12/06 00:50:55;;;;;;;7.70;2.30;;;5.00;96.40;;;;;;4976518;28;20121;-74
2022/12/06 00:53:22;;;;;;;5.70;1.90;;;5.00;96.40;;;;;;4992339;28;20553;-74
2022/12/06 00:55:48;;;;;;;6.45;2.20;;;5.00;96.40;;;;;;4992235;28;20038;-74
2022/12/06 00:58:14;;;;;;;5.95;2.05;;;5.00;96.50;;;;;;4992234;28;20042;-75
2022/12/06 01:00:40;;;;;;;7.55;2.80;;;5.00;96.50;;;;;;4991510;28;20541;-74
2022/12/06 01:03:07;;;;;;;7.20;2.10;;;5.00;96.50;;;;;;4992178;28;20050;-74
2022/12/06 01:05:33;;;;;;;8.32;2.65;;;5.00;96.50;;;;;;4976635;28;20046;-73
2022/12/06 01:07:59;;;;;;;9.30;2.30;;;5.10;96.50;;;;;;4996337;28;20084;-74
2022/12/06 01:10:25;;;;;;;6.30;2.58;;;5.10;96.40;;;;;;4995946;28;20486;-74
2022/12/06 01:12:51;;;;;;;5.50;2.17;;;5.10;96.40;;;;;;4996090;28;20088;-74
2022/12/06 01:15:16;;;;;;;6.85;2.50;;;5.10;96.50;;;;;;4994986;28;20038;-73
2022/12/06 01:17:42;;;;;;;5.72;2.22;;;5.10;96.50;;;;;;4995918;28;20108;-75
2022/12/06 01:20:08;;;;;;;4.82;2.60;;;5.10;96.40;;;;;;4995930;28;20048;-74
2022/12/06 01:22:34;;;;;;;6.10;2.72;;;5.10;96.50;;;;;;4996063;28;20046;-73
2022/12/06 01:25:00;;;;;;;8.65;2.60;;;5.10;96.50;;;;;;4995610;28;20562;-73
2022/12/06 01:27:25;;;;;;;6.53;2.60;;;5.10;96.40;;;;;;4995738;28;20053;-74
2022/12/06 01:29:51;;;;;;;5.28;2.63;;;5.10;96.40;;;;;;4995612;28;20049;-74
2022/12/06 01:32:17;;;;;;;6.78;3.17;;;5.10;96.40;;;;;;4995143;28;20060;-74
2022/12/06 01:34:44;;;;;;;7.45;2.60;;;5.10;96.40;;;;;;4995636;28;20461;-73
2022/12/06 01:37:10;;;;;;;6.35;2.55;;;5.10;96.40;;;;;;4979441;28;20046;-74
2022/12/06 01:39:36;;;;;;;6.22;2.50;;;5.10;96.40;;;;;;4995384;28;20054;-74
2022/12/06 01:42:01;;;;;;;5.35;2.60;;;5.10;96.40;;;;;;4979559;28;20057;-74
2022/12/06 01:44:47;;;;;;;5.32;2.90;;;5.10;96.40;;;;;;4979296;28;20533;-73
2022/12/06 01:47:13;;;;;;;7.28;2.88;;;5.10;96.40;;;;;;4994844;28;20502;-73
2022/12/06 01:49:42;;;;;;;7.30;2.72;;;5.10;96.30;;;;;;4995211;28;20129;-74
2022/12/06 01:52:11;;;;;;;8.48;3.10;;;5.10;96.40;;;;;;4995285;28;20030;-74
2022/12/06 01:54:39;;;;;;;6.10;2.97;;;5.10;96.30;;;;;;4995275;28;20038;-75
2022/12/06 01:57:09;;;;;;;7.18;3.20;;;5.10;96.30;;;;;;4995426;28;20039;-73
2022/12/06 01:59:35;;;;;;;6.35;3.38;;;5.10;96.30;;;;;;4978860;28;20541;-74
2022/12/06 02:02:01;;;;;;;8.52;3.92;;;5.10;96.30;;;;;;4995422;28;20042;-74
2022/12/06 02:04:29;;;;;;;8.05;3.75;;;5.10;96.30;;;;;;4994278;28;20410;-74
2022/12/06 02:06:57;;;;;;;5.45;3.65;;;5.10;96.30;;;;;;4978863;28;20096;-75
2022/12/06 02:09:25;;;;;;;8.38;3.70;;;5.10;96.30;;;;;;4979020;28;20406;-75
2022/12/06 02:11:51;;;;;;;5.68;3.30;;;5.10;96.30;;;;;;4994923;28;20045;-75
2022/12/06 02:14:21;;;;;;;8.82;4.47;;;5.10;96.30;;;;;;4994903;28;20121;-74
2022/12/06 02:16:52;;;;;;;8.50;3.85;;;5.10;96.30;;;;;;4994768;28;20097;-75
2022/12/06 02:19:41;;;;;;;8.48;3.75;;;5.10;96.30;;;;;;4978543;28;20046;-74
2022/12/06 02:22:13;;;;;;;7.70;3.28;;;5.10;96.30;;;;;;4993798;28;20124;-74
2022/12/06 02:24:59;;;;;;;11.07;3.30;;;5.10;96.30;;;;;;4994700;28;20065;-74
2022/12/06 02:27:53;;;;;;;6.68;2.97;;;5.10;96.30;;;;;;4994615;28;20056;-74
2022/12/06 02:30:43;;;;;;;8.25;3.30;;;5.10;96.30;;;;;;4978363;28;20487;-74
2022/12/06 02:33:19;;;;;;;7.47;4.80;;;5.00;96.30;;;;;;4994637;28;20048;-74
2022/12/06 02:35:56;;;;;;;7.80;4.53;;;5.00;96.30;;;;;;4994806;28;20100;-74
2022/12/06 02:38:33;;;;;;;9.98;4.68;;;5.00;96.30;;;;;;4993849;28;20042;-73
2022/12/06 02:41:24;;;;;;;13.23;6.82;;;5.00;96.30;;;;;;4978347;28;20042;-74
2022/12/06 02:43:58;;;;;;;10.82;5.40;;;5.00;96.30;;;;;;4994728;28;20425;-74
2022/12/06 02:46:28;;;;;;;6.82;5.10;;;5.00;96.30;;;;;;4994338;28;20486;-74
2022/12/06 02:48:58;;;;;;;10.65;4.13;;;5.00;96.30;;;;;;4994138;28;20518;-74
2022/12/06 02:51:25;;;;;;;7.07;4.20;;;5.00;96.30;;;;;;4978059;28;20038;-74
2022/12/06 02:53:53;;;;;;;4.68;3.63;;;5.00;96.40;;;;;;4993208;28;20053;-74
2022/12/06 02:56:20;;;;;;;10.40;4.53;;;5.00;96.40;;;;;;4994358;28;20125;-73
2022/12/06 02:58:46;;;;;;;11.70;3.92;;;5.00;96.40;;;;;;4961837;28;20568;-73
2022/12/06 03:01:16;;;;;;;9.77;4.03;;;5.00;96.40;;;;;;4977760;28;20050;-74
2022/12/06 03:03:56;;;;;;;9.15;4.00;;;5.00;96.40;;;;;;4994018;28;20077;-73
2022/12/06 03:06:59;;;;;;;14.25;10.55;;;5.00;96.40;;;;;;4994239;28;20046;-74
2022/12/06 03:09:42;;;;;;;6.40;5.15;;;5.00;96.40;;;;;;4992593;28;20053;-73
2022/12/06 03:12:49;;;;;;;14.02;6.32;;;5.00;96.50;;;;;;4993919;28;20097;-75
2022/12/06 03:15:28;;;;;;;9.02;6.18;;;5.00;96.40;;;;;;4980306;28;20078;-74
2022/12/06 03:18:19;;;;;;;8.13;5.78;;;5.00;96.40;;;;;;5010079;28;20042;-74
2022/12/06 03:20:53;;;;;;;9.63;5.47;;;5.00;96.50;;;;;;4993255;28;20046;-73
2022/12/06 03:23:31;;;;;;;6.15;5.00;;;5.00;96.50;;;;;;4993704;28;20043;-74
2022/12/06 03:25:59;;;;;;;8.85;4.28;;;5.00;96.50;;;;;;4992568;28;20368;-74
2022/12/06 03:28:27;;;;;;;9.05;3.88;;;4.90;96.40;;;;;;4975538;28;20088;-74
2022/12/06 03:30:59;;;;;;;10.60;4.30;;;5.00;96.50;;;;;;4993532;28;20042;-73
2022/12/06 03:33:28;;;;;;;8.95;3.90;;;4.90;96.40;;;;;;4993490;28;20057;-74
2022/12/06 03:35:56;;;;;;;8.20;3.78;;;4.90;96.50;;;;;;4993441;28;20077;-73
2022/12/06 03:38:34;;;;;;;6.18;4.25;;;4.90;96.50;;;;;;4993240;28;20097;-74
2022/12/06 03:41:04;;;;;;;8.23;3.58;;;5.00;96.60;;;;;;4993349;28;20495;-73
2022/12/06 03:43:31;;;;;;;6.53;2.53;;;5.00;96.40;;;;;;4992596;28;20043;-73
2022/12/06 03:46:15;;;;;;;5.97;2.10;;;5.00;96.30;;;;;;4977472;28;20046;-73
2022/12/06 03:48:48;;;;;;;3.22;1.90;;;5.00;96.30;;;;;;4976894;28;20088;-74
2022/12/06 03:51:25;;;;;;;8.90;1.92;;;5.00;96.30;;;;;;4993111;28;20042;-73
2022/12/06 03:53:53;;;;;;;2.20;1.30;;;5.00;96.30;;;;;;4993107;28;20061;-73
2022/12/06 03:56:20;;;;;;;3.15;1.40;;;5.00;96.20;;;;;;4993041;28;20053;-73
2022/12/06 03:58:46;;;;;;;1.83;1.23;;;5.00;96.20;;;;;;4960902;28;20132;-74
2022/12/06 04:01:12;;;;;;;3.20;1.40;;;4.90;96.10;;;;;;4976080;28;20038;-73
2022/12/06 04:03:37;;;;;;;5.90;1.38;;;4.90;96.10;;;;;;4989650;28;20038;-73
2022/12/06 04:06:05;;;;;;;3.42;1.23;;;4.90;96.10;;;;;;4973511;28;20169;-73
2022/12/06 04:08:31;;;;;;;1.60;1.20;;;5.00;96.10;;;;;;4973498;28;20495;-74
2022/12/06 04:10:57;;;;;;;2.38;1.02;;;5.00;96.10;;;;;;4973463;28;20598;-73
2022/12/06 04:13:23;;;;;;;2.25;1.10;;;5.00;96.00;;;;;;4989706;28;20129;-74
2022/12/06 04:15:49;;;;;;;4.78;1.63;;;5.00;96.00;;;;;;4957500;28;20403;-74
2022/12/06 04:18:17;;;;;;;2.08;0.90;;;5.00;96.00;;;;;;4979250;28;20034;-73
2022/12/06 04:23:38;;;;;;;3.85;1.00;;;5.00;96.00;;;;;;4992693;28;20057;-73
2022/12/06 04:26:06;;;;;;;2.13;1.10;;;4.90;95.90;;;;;;4992488;28;20507;-74
2022/12/06 04:39:30;;;;;;;2.75;1.10;;;4.90;95.80;;;;;;4978661;28;20053;-74
2022/12/06 04:44:41;;;;;;;;;;;4.90;95.80;;;;;;4992918;28;20056;-74
2022/12/06 04:47:06;;;;;;;3.97;1.10;;;4.80;95.70;;;;;;4992408;28;19996;-74
2022/12/06 04:49:33;;;;;;;4.35;1.10;;;4.80;95.80;;;;;;4992543;28;20050;-73
2022/12/06 04:51:59;;;;;;;4.03;1.20;;;4.80;95.70;;;;;;4975402;28;20043;-74
2022/12/06 04:54:25;;;;;;;4.93;1.45;;;4.80;95.70;;;;;;4992549;28;20044;-74
2022/12/06 04:56:52;;;;;;;3.17;1.20;;;4.80;95.70;;;;;;4976193;28;20482;-74
2022/12/06 04:59:19;;;;;;;9.32;2.70;;;4.90;95.70;;;;;;4976076;28;20046;-74
2022/12/06 05:01:44;;;;;;;6.28;1.88;;;4.80;95.70;;;;;;4976367;28;20509;-74
2022/12/06 05:04:10;;;;;;;3.60;1.13;;;4.90;95.70;;;;;;4992312;28;20039;-74
2022/12/06 05:06:36;;;;;;;3.55;1.10;;;4.80;95.70;;;;;;4992563;28;20095;-73
2022/12/06 05:09:02;;;;;;;2.63;1.20;;;4.80;95.70;;;;;;4990872;28;20082;-75
2022/12/06 05:11:27;;;;;;;2.33;1.30;;;4.80;95.60;;;;;;4992097;28;20038;-74
2022/12/06 05:13:53;;;;;;;3.45;1.02;;;4.80;95.60;;;;;;4992201;28;20375;-74
2022/12/06 05:16:19;;;;;;;4.97;1.55;;;4.80;95.60;;;;;;4975945;28;20050;-73
2022/12/06 05:18:44;;;;;;;5.60;1.10;;;4.80;95.60;;;;;;4992069;28;20042;-73
2022/12/06 05:21:17;;;;;;;6.47;1.48;;;4.80;95.60;;;;;;4976186;28;20043;-73
2022/12/06 05:23:43;;;;;;;3.60;1.65;;;4.80;95.60;;;;;;4976193;28;20038;-74
2022/12/06 05:26:17;;;;;;;4.75;1.58;;;4.80;95.60;;;;;;4991170;28;20541;-74
2022/12/06 05:28:44;;;;;;;8.50;3.50;;;4.80;95.60;;;;;;4992215;28;20052;-74
2022/12/06 05:31:10;;;;;;;3.88;2.40;;;4.80;95.60;;;;;;4975820;28;20048;-74
2022/12/06 05:33:37;;;;;;;7.35;4.00;;;4.80;95.50;;;;;;4992153;28;20038;-73
2022/12/06 05:36:14;;;;;;;5.90;3.38;;;4.80;95.50;;;;;;4975759;28;20562;-73
2022/12/06 05:38:39;;;;;;;7.97;4.72;;;4.70;95.40;;;;;;4991905;28;20046;-74
2022/12/06 05:41:06;;;;;;;7.47;4.88;;;4.70;95.40;;;;;;4975328;28;20053;-74
2022/12/06 05:43:32;;;;;;;7.43;4.78;;;4.60;95.30;;;;;;4992011;28;20038;-74
2022/12/06 05:45:58;;;;;;;11.27;4.72;;;4.60;95.30;;;;;;4991911;28;20490;-74
2022/12/06 05:48:24;;;;;;;8.55;4.50;;;4.60;95.20;;;;;;5008035;28;20034;-74
2022/12/06 05:50:50;;;;;;;4.72;3.55;;;4.50;95.20;;;;;;4991724;28;20044;-75
2022/12/06 05:53:17;;;;;;;7.55;3.30;;;4.40;95.10;;;;;;4962419;28;20042;-73
2022/12/06 05:55:43;;;;;;;4.43;2.90;;;4.30;95.00;;;;;;4995278;28;20057;-74
2022/12/06 05:58:09;;;;;;;8.60;3.30;;;4.30;95.00;;;;;;4994638;28;20459;-75
2022/12/06 06:00:35;;;;;;;6.20;2.60;;;4.20;94.90;;;;;;4995213;28;20049;-74
2022/12/06 06:03:01;;;;;;;5.18;2.72;;;4.10;94.90;;;;;;4978978;28;20038;-74
2022/12/06 06:05:27;;;;;;;4.82;4.28;;;4.10;94.80;;;;;;4995253;28;20046;-74
2022/12/06 06:07:53;;;;;;;10.10;3.70;;;4.00;94.80;;;;;;4994976;28;20557;-74
2022/12/06 06:10:20;;;;;;;5.90;3.40;;;3.90;94.80;;;;;;4978856;28;20491;-73
2022/12/06 06:12:45;;;;;;;6.97;2.40;;;3.90;94.70;;;;;;5011255;28;20534;-75
2022/12/06 06:15:12;;;;;;;4.28;2.50;;;3.90;94.80;;;;;;4994106;28;20035;-75
2022/12/06 06:17:38;;;;;;;9.57;5.35;;;3.70;94.80;;;;;;4978666;28;20498;-74
2022/12/06 06:20:05;;;;;;;17.95;10.27;;;3.60;94.70;;;;;;5011403;28;20502;-74
2022/12/06 06:22:36;;;;;;;13.68;9.88;;;3.60;94.90;;;;;;4978557;28;20038;-75
2022/12/06 06:25:03;;;;;;;15.00;8.85;;;3.60;95.00;;;;;;4994595;28;20063;-74
2022/12/06 06:27:32;;;;;;;12.65;7.93;;;3.60;95.10;;;;;;4995245;28;20402;-74
2022/12/06 06:29:58;;;;;;;18.10;8.93;;;3.50;95.20;;;;;;4994569;28;20129;-74
2022/12/06 06:32:24;;;;;;;12.15;6.18;;;3.50;95.30;;;;;;4977646;28;20477;-73
2022/12/06 06:34:50;;;;;;;10.45;4.25;;;3.50;95.30;;;;;;4994570;28;20043;-74
2022/12/06 06:37:15;;;;;;;13.18;3.97;;;3.50;95.60;;;;;;4994544;28;20034;-74
2022/12/06 06:39:41;;;;;;;7.90;4.65;;;3.50;95.50;;;;;;4978144;28;20093;-74
2022/12/06 06:42:07;;;;;;;5.78;3.10;;;3.50;95.60;;;;;;4994380;28;20093;-74
2022/12/06 06:44:32;;;;;;;5.80;3.25;;;3.40;95.60;;;;;;4994228;28;20046;-74
2022/12/06 06:46:58;;;;;;;5.88;3.20;;;3.40;95.60;;;;;;5003205;28;20592;-74
2022/12/06 06:49:24;;;;;;;6.32;2.80;;;3.40;95.60;;;;;;5004447;28;20129;-74
2022/12/06 06:51:49;;;;;;;5.25;2.72;;;3.30;95.60;;;;;;5002681;28;20041;-74
2022/12/06 06:54:15;;;;;;;5.93;2.45;;;3.30;95.70;;;;;;5006394;28;20034;-75
2022/12/06 06:56:41;;;;;;;9.18;4.03;;;3.20;95.60;;;;;;4999753;28;20092;-75
2022/12/06 06:59:07;;;;;;;4.18;2.78;;;3.10;95.50;;;;;;4980538;28;20042;-74
2022/12/06 07:01:33;;;;;;;7.38;2.88;;;3.10;95.70;;;;;;4993687;28;20112;-74
2022/12/06 07:03:58;;;;;;;5.90;2.67;;;3.10;95.50;;;;;;4992686;28;20101;-74
2022/12/06 07:06:24;;;;;;;4.60;2.60;;;3.10;95.60;;;;;;4994734;28;20049;-76
2022/12/06 07:08:50;;;;;;;6.13;2.75;;;3.10;95.70;;;;;;4994180;28;20050;-73
2022/12/06 07:11:16;;;;;;;9.85;3.53;;;3.10;95.70;;;;;;4994305;28;20034;-74
2022/12/06 07:13:42;;;;;;;8.85;3.88;;;3.10;95.70;;;;;;4994116;28;20034;-75
2022/12/06 07:16:14;;;;;;;8.32;3.63;;;3.10;95.60;;;;;;4978092;28;20124;-75
2022/12/06 07:18:40;;;;;;;9.20;3.88;;;3.10;95.70;;;;;;4978143;28;20046;-76
2022/12/06 07:21:09;;;;;;;8.38;3.88;;;3.10;95.60;;;;;;4980180;28;20046;-74
2022/12/06 07:23:36;;;;;;;7.60;2.97;;;3.10;95.60;;;;;;5010399;28;20367;-74
2022/12/06 07:26:13;;;;;;;7.85;3.28;;;3.10;95.50;;;;;;4993700;28;20117;-74
2022/12/06 07:28:41;;;;;;;9.43;3.95;;;3.10;95.40;;;;;;5009991;28;20104;-75
2022/12/06 07:31:07;;;;;;;6.22;3.20;;;3.10;95.40;;;;;;4977411;28;20549;-74
2022/12/06 07:33:33;;;;;;;8.77;3.60;;;3.10;95.30;;;;;;4993525;28;20042;-75
2022/12/06 07:35:59;;;;;;;8.95;3.40;;;3.10;95.30;;;;;;4980809;28;20045;-74
2022/12/06 07:38:24;;;;;;;14.63;6.63;;;3.10;95.30;;;;;;4974167;28;20038;-74
2022/12/06 07:40:50;;;;;;;13.30;6.80;;;3.20;95.30;;;;;;4974312;28;20097;-74
2022/12/06 07:46:00;;;;;;;13.23;5.90;;;3.20;95.10;;;;;;4974282;28;20105;-74
2022/12/06 07:48:25;;;;;;;5.80;3.22;;;3.30;95.10;;;;;;4973951;28;20047;-74
2022/12/06 07:50:51;;;;;;;5.15;3.28;;;3.30;95.10;;;;;;4973928;28;20047;-75
2022/12/06 07:53:17;;;;;;;8.65;3.53;;;3.40;94.90;;;;;;4965107;28;20038;-75
2022/12/06 07:55:43;;;;;;;8.05;4.28;;;3.40;94.80;;;;;;4993662;28;20509;-74
2022/12/06 07:58:08;;;;;;;7.85;4.60;;;3.50;94.70;;;;;;4993513;28;20066;-74
2022/12/06 08:00:36;;;;;;;8.30;3.88;;;3.50;94.70;;;;;;4977357;28;20048;-74
2022/12/06 08:03:02;;;;;;;9.10;3.83;;;3.50;94.60;;;;;;4977125;28;20042;-75
2022/12/06 08:05:28;;;;;;;8.50;2.92;;;3.60;94.60;;;;;;4993336;28;20038;-75
2022/12/06 08:07:53;;;;;;;8.70;3.08;;;3.50;94.60;;;;;;4993320;28;20135;-74
2022/12/06 08:10:19;;;;;;;4.93;2.53;;;3.60;94.60;;;;;;4992192;28;20053;-74
2022/12/06 08:12:45;;;;;;;5.70;3.03;;;3.60;94.60;;;;;;4992951;28;20408;-75
2022/12/06 08:15:13;;;;;;;5.03;2.58;;;3.70;94.50;;;;;;4992468;28;20042;-73
2022/12/06 08:17:39;;;;;;;5.53;3.30;;;3.80;94.50;;;;;;4992970;28;20038;-73
2022/12/06 08:20:07;;;;;;;5.93;2.85;;;3.80;94.50;;;;;;4992678;28;20042;-74
2022/12/06 08:22:33;;;;;;;4.38;2.35;;;3.80;94.40;;;;;;4993024;28;20462;-74
2022/12/06 08:24:59;;;;;;;10.25;2.85;;;3.90;94.40;;;;;;4992624;28;20062;-74
2022/12/06 08:27:25;;;;;;;4.38;2.35;;;4.00;94.30;;;;;;4992339;28;20050;-74
2022/12/06 08:29:51;;;;;;;4.30;2.65;;;4.00;94.30;;;;;;4992698;28;20053;-75
2022/12/06 08:32:17;;;;;;;8.98;3.80;;;4.00;94.30;;;;;;4976763;28;20038;-74
2022/12/06 08:34:43;;;;;;;5.88;2.97;;;4.10;94.30;;;;;;4992795;28;20092;-74
2022/12/06 08:37:09;;;;;;;8.43;3.17;;;4.10;94.40;;;;;;4992994;28;20038;-74
2022/12/06 08:39:35;;;;;;;6.20;2.65;;;4.10;94.30;;;;;;4992856;28;20056;-74
2022/12/06 08:42:02;;;;;;;4.18;3.05;;;4.10;94.30;;;;;;4975585;28;20129;-74
2022/12/06 08:44:29;;;;;;;9.23;3.60;;;4.10;94.40;;;;;;4973218;28;20053;-73
2022/12/06 08:46:56;;;;;;;8.93;3.25;;;4.10;94.30;;;;;;4973191;28;20053;-74
2022/12/06 08:49:23;;;;;;;6.28;4.38;;;4.10;94.40;;;;;;4985013;28;20043;-74
2022/12/06 08:51:49;;;;;;;6.80;3.38;;;4.10;94.40;;;;;;5008970;28;20042;-73
2022/12/06 08:54:17;;;;;;;7.35;3.13;;;4.10;94.40;;;;;;4976518;28;20038;-73
2022/12/06 08:56:43;;;;;;;5.45;3.17;;;4.10;94.40;;;;;;4992797;28;20078;-74
2022/12/06 08:59:09;;;;;;;7.63;3.92;;;4.10;94.50;;;;;;4992598;28;20045;-76
2022/12/06 09:01:35;;;;;;;8.95;3.88;;;4.10;94.50;;;;;;4992664;28;20166;-73
2022/12/06 09:04:02;;;;;;;11.20;3.58;;;4.10;94.50;;;;;;4992643;28;20133;-73
2022/12/06 09:06:28;;;;;;;7.50;3.58;;;4.10;94.60;;;;;;4992140;28;20077;-74
2022/12/06 09:08:55;;;;;;;8.27;3.50;;;4.10;94.40;;;;;;4976260;28;20082;-74
2022/12/06 09:11:20;;;;;;;6.10;3.35;;;4.10;94.50;;;;;;4976300;28;20050;-74
2022/12/06 09:13:46;;;;;;;4.50;3.70;;;4.20;94.40;;;;;;4992692;28;20038;-74
2022/12/06 09:16:14;;;;;;;8.05;3.40;;;4.30;94.40;;;;;;4992297;28;20045;-73
2022/12/06 09:18:41;;;;;;;9.52;3.30;;;4.30;94.40;;;;;;4992681;28;20050;-73
2022/12/06 09:21:09;;;;;;;5.03;3.15;;;4.30;94.40;;;;;;4976765;28;20398;-74
2022/12/06 09:23:36;;;;;;;5.13;3.65;;;4.40;94.40;;;;;;4975318;28;20085;-73
2022/12/06 09:26:03;;;;;;;5.65;3.00;;;4.40;94.30;;;;;;4972989;28;20542;-74
2022/12/06 09:28:30;;;;;;;8.73;3.47;;;4.50;94.40;;;;;;4976577;28;20049;-74
2022/12/06 09:30:56;;;;;;;6.43;2.97;;;4.50;94.40;;;;;;4976657;28;20050;-74
2022/12/06 09:33:23;;;;;;;5.93;3.65;;;4.60;94.60;;;;;;4976498;28;20484;-74
2022/12/06 09:35:52;;;;;;;9.32;3.85;;;4.60;94.60;;;;;;4965553;28;20080;-75
2022/12/06 09:38:21;;;;;;;6.88;2.97;;;4.60;94.60;;;;;;4995489;28;20034;-74
2022/12/06 09:41:19;;;;;;;5.63;3.33;;;4.70;94.70;;;;;;4995843;28;20073;-74
2022/12/06 09:44:21;;;;;;;7.78;4.57;;;4.80;94.70;;;;;;4995278;28;20057;-74
2022/12/06 09:47:35;;;;;;;5.70;3.20;;;4.90;94.60;;;;;;4995775;28;20100;-74
2022/12/06 09:50:28;;;;;;;7.10;2.58;;;4.90;94.70;;;;;;4961781;28;20094;-75
2022/12/06 09:53:12;;;;;;;5.95;2.38;;;5.10;94.70;;;;;;4995667;28;20131;-75
2022/12/06 09:55:53;;;;;;;7.70;3.22;;;5.10;94.70;;;;;;4994643;28;20050;-75
2022/12/06 09:58:25;;;;;;;4.50;2.70;;;5.10;94.80;;;;;;4979354;28;20042;-74
2022/12/06 10:01:05;;;;;;;4.38;2.58;;;5.10;94.70;;;;;;4979619;28;20065;-73
2022/12/06 10:03:49;;;;;;;6.53;3.10;;;5.20;94.70;;;;;;4995757;28;20056;-74
2022/12/06 10:06:18;;;;;;;5.20;3.00;;;5.20;94.60;;;;;;4979247;28;20042;-74
2022/12/06 10:09:05;;;;;;;4.07;2.80;;;5.20;94.80;;;;;;4998473;28;20637;-74
2022/12/06 10:11:48;;;;;;;6.53;2.80;;;5.30;94.70;;;;;;5015114;28;20080;-75
2022/12/06 10:14:23;;;;;;;6.97;2.60;;;5.30;94.60;;;;;;4996482;28;20121;-74
2022/12/06 10:17:07;;;;;;;6.43;3.25;;;5.30;94.50;;;;;;4995512;28;20509;-74
2022/12/06 10:19:52;;;;;;;9.00;3.30;;;5.30;94.40;;;;;;4979156;28;20038;-75
2022/12/06 10:22:34;;;;;;;6.07;2.72;;;5.40;94.50;;;;;;4995456;28;20046;-77
2022/12/06 10:25:14;;;;;;;10.27;3.28;;;5.40;94.40;;;;;;4977824;28;20108;-77
2022/12/06 10:28:01;;;;;;;7.47;2.90;;;5.50;94.40;;;;;;4994918;28;20056;-74
2022/12/06 10:30:27;;;;;;;7.18;2.80;;;5.50;94.40;;;;;;4994450;28;20049;-75
2022/12/06 10:32:54;;;;;;;5.30;2.65;;;5.60;94.40;;;;;;4995590;28;20399;-76
2022/12/06 10:35:44;;;;;;;4.50;2.58;;;5.70;94.50;;;;;;4978524;28;20049;-75
2022/12/06 10:38:57;;;;;;;4.22;2.05;;;5.80;94.40;;;;;;4978464;28;20101;-74
2022/12/06 10:41:32;;;;;;;3.85;2.05;;;5.80;94.10;;;;;;4986521;28;20051;-75
2022/12/06 10:44:10;;;;;;;3.67;2.22;;;5.80;94.00;;;;;;4994704;28;20050;-75
2022/12/06 10:47:14;;;;;;;6.07;3.05;;;6.00;93.90;;;;;;4977759;28;20045;-75
2022/12/06 10:50:01;;;;;;;4.40;3.22;;;6.10;93.80;;;;;;4994857;28;20125;-75
2022/12/06 10:52:42;;;;;;;8.85;3.05;;;6.10;93.70;;;;;;4994779;28;20110;-78
2022/12/06 10:55:08;;;;;;;6.95;2.30;;;6.10;93.60;;;;;;4978505;28;20076;-77
2022/12/06 10:57:55;;;;;;;7.35;2.10;;;6.10;93.30;;;;;;4994618;28;20086;-75
2022/12/06 11:00:27;;;;;;;4.50;2.50;;;6.10;93.30;;;;;;4994603;28;20134;-74
2022/12/06 11:03:17;;;;;;;4.50;2.40;;;6.20;93.20;;;;;;4993880;28;20666;-74
2022/12/06 11:05:45;;;;;;;4.82;2.10;;;6.20;93.30;;;;;;4994666;28;20048;-75
2022/12/06 11:08:32;;;;;;;4.32;1.85;;;6.30;93.20;;;;;;4994472;28;20046;-74
2022/12/06 11:11:00;;;;;;;5.32;2.63;;;6.30;93.30;;;;;;4994480;28;20621;-74
2022/12/06 11:13:58;;;;;;;4.40;1.58;;;6.30;93.30;;;;;;4994221;28;20053;-74
2022/12/06 11:16:30;;;;;;;4.03;1.95;;;6.40;93.40;;;;;;4986537;28;20054;-75
2022/12/06 11:19:01;;;;;;;4.22;2.58;;;6.50;93.10;;;;;;4993997;28;20046;-74
2022/12/06 11:21:35;;;;;;;3.90;1.38;;;6.50;93.20;;;;;;4993294;28;20108;-74
2022/12/06 11:24:12;;;;;;;3.05;1.30;;;6.50;93.30;;;;;;4977577;28;20115;-75
2022/12/06 11:26:53;;;;;;;3.92;1.40;;;6.50;93.30;;;;;;4993930;28;20034;-73
2022/12/06 11:29:19;;;;;;;3.80;1.40;;;6.50;93.60;;;;;;4993991;28;20045;-77
2022/12/06 11:31:45;;;;;;;3.30;1.45;;;6.60;93.50;;;;;;4977449;28;20121;-75
2022/12/06 11:34:38;;;;;;;5.78;1.75;;;6.60;93.50;;;;;;4994124;28;20081;-73
2022/12/06 11:37:05;;;;;;;5.22;1.23;;;6.60;93.50;;;;;;4993837;28;20542;-74
2022/12/06 11:39:32;;;;;;;3.38;1.30;;;6.70;93.60;;;;;;4960274;28;20072;-74
2022/12/06 11:42:02;;;;;;;3.33;1.20;;;6.70;93.60;;;;;;4993895;28;20482;-74
2022/12/06 11:44:43;;;;;;;5.28;1.10;;;6.60;93.90;;;;;;4977504;28;20058;-76
2022/12/06 11:47:16;;;;;;;4.57;1.40;;;6.60;93.80;;;;;;5010037;28;20506;-73
2022/12/06 11:49:44;;;;;;;7.13;4.03;;;6.60;94.00;;;;;;4992816;28;20093;-75
2022/12/06 11:52:21;;;;;;;5.85;2.33;;;6.60;94.00;;;;;;4993688;28;20046;-75
2022/12/06 11:54:58;;;;;;;3.22;1.60;;;6.60;94.20;;;;;;4993589;28;20134;-74
2022/12/06 11:57:37;;;;;;;2.85;0.95;;;6.60;94.30;;;;;;4992919;28;20100;-76
2022/12/06 12:00:12;;;;;;;3.75;1.55;;;6.60;94.30;;;;;;4993646;28;20116;-79
2022/12/06 12:02:38;;;;;;;4.43;0.90;;;6.60;94.40;;;;;;4993505;28;20520;-75
2022/12/06 12:05:15;;;;;;;4.80;1.05;;;6.60;94.40;;;;;;4977318;28;20038;-75
2022/12/06 12:07:43;;;;;;;2.33;1.23;;;6.60;94.30;;;;;;4977143;28;20487;-74
2022/12/06 12:10:32;;;;;;;6.18;2.15;;;6.60;94.50;;;;;;4993201;28;20042;-75
2022/12/06 12:16:23;;;;;;;6.78;3.50;;;6.50;94.50;;;;;;4993042;28;20134;-77
2022/12/06 12:18:56;;;;;;;;;;;6.50;94.70;;;;;;4993322;28;20053;-74
2022/12/06 12:21:38;;;;;;;4.47;2.28;;;6.50;94.70;;;;;;4992946;28;19971;-75
2022/12/06 12:24:25;;;;;;;9.10;1.98;;;6.50;94.80;;;;;;4992658;28;20083;-77
2022/12/06 12:26:50;;;;;;;4.22;1.23;;;6.50;95.00;;;;;;4992978;28;20046;-78
2022/12/06 12:29:18;;;;;;;5.30;1.23;;;6.50;95.00;;;;;;4991945;28;20482;-75
2022/12/06 12:31:48;;;;;;;4.15;1.40;;;6.50;95.00;;;;;;4992587;28;20418;-76
2022/12/06 12:34:26;;;;;;;2.58;0.85;;;6.60;95.10;;;;;;4992227;28;20043;-77
2022/12/06 12:37:03;;;;;;;2.90;1.48;;;6.60;95.20;;;;;;4992385;28;20070;-75
2022/12/06 12:39:37;;;;;;;6.13;1.80;;;6.60;95.30;;;;;;4992173;28;20606;-77
2022/12/06 12:42:23;;;;;;;3.35;1.20;;;6.60;95.30;;;;;;4992313;28;20140;-77
2022/12/06 12:44:53;;;;;;;3.65;1.42;;;6.70;95.40;;;;;;4975444;28;20406;-77
2022/12/06 12:47:19;;;;;;;3.75;0.77;;;6.70;95.30;;;;;;4992395;28;20177;-75
2022/12/06 12:50:14;;;;;;;4.97;0.90;;;6.80;95.30;;;;;;4992558;28;20108;-77
2022/12/06 12:52:41;;;;;;;5.15;1.75;;;6.80;95.40;;;;;;4976490;28;20394;-78
2022/12/06 12:55:15;;;;;;;4.80;1.83;;;6.80;95.30;;;;;;4992217;28;20501;-74
2022/12/06 12:57:46;;;;;;;5.50;1.27;;;6.80;95.30;;;;;;4992236;28;20173;-76
2022/12/06 13:00:37;;;;;;;2.92;1.23;;;6.80;95.30;;;;;;4991323;28;20042;-77
2022/12/06 13:03:10;;;;;;;5.40;1.30;;;6.90;95.40;;;;;;4991267;28;20248;-75
2022/12/06 13:05:37;;;;;;;6.28;2.25;;;6.80;95.30;;;;;;4996118;28;20046;-75
2022/12/06 13:08:16;;;;;;;3.72;1.25;;;6.70;95.30;;;;;;4996052;28;20129;-77
2022/12/06 13:10:45;;;;;;;3.33;1.40;;;6.80;95.30;;;;;;4996026;28;20376;-75
2022/12/06 13:13:18;;;;;;;5.53;1.67;;;6.70;95.40;;;;;;4995948;28;20046;-76
2022/12/06 13:15:47;;;;;;;4.07;0.93;;;6.70;95.40;;;;;;4995924;28;20050;-76
2022/12/06 13:18:24;;;;;;;1.70;0.95;;;6.70;95.50;;;;;;4994831;28;20066;-76
2022/12/06 13:20:52;;;;;;;6.65;1.20;;;6.70;95.50;;;;;;4965309;28;20043;-75
2022/12/06 13:23:21;;;;;;;8.15;2.22;;;6.70;95.60;;;;;;4976373;28;20046;-77
2022/12/06 13:26:08;;;;;;;4.57;2.75;;;6.70;95.60;;;;;;4960025;28;20080;-80
2022/12/06 13:28:42;;;;;;;4.25;1.60;;;6.70;95.70;;;;;;4976265;28;20208;-76
2022/12/06 13:31:15;;;;;;;2.83;0.80;;;6.70;95.70;;;;;;4976045;28;20047;-76
2022/12/06 13:33:54;;;;;;;4.03;2.60;;;6.80;95.60;;;;;;4976285;28;20517;-75
2022/12/06 13:36:23;;;;;;;4.75;1.60;;;6.80;95.60;;;;;;4991184;28;20384;-77
2022/12/06 13:38:48;;;;;;;2.95;1.33;;;6.70;95.70;;;;;;4995260;28;20613;-75
2022/12/06 13:44:40;;;;;;;4.45;3.78;;;6.80;95.90;;;;;;4995385;28;20104;-78